createdAt,value
2022-09-11T00:01:14.294Z,84.99
2022-09-11T00:03:42.686Z,84.70
2022-09-11T00:06:14.668Z,84.81
2022-09-11T00:08:42.320Z,84.52
2022-09-11T00:11:17.506Z,84.63
2022-09-11T00:13:48.789Z,84.55
2022-09-11T00:16:41.402Z,84.42
2022-09-11T00:19:15.593Z,84.61
2022-09-11T00:21:42.057Z,84.82
2022-09-11T00:24:11.508Z,84.75
2022-09-11T00:26:38.923Z,84.82
2022-09-11T00:29:05.538Z,84.44
2022-09-11T00:31:32.695Z,84.35
2022-09-11T00:33:59.675Z,84.36
2022-09-11T00:36:29.174Z,84.80
2022-09-11T00:38:56.297Z,84.75
2022-09-11T00:41:25.580Z,84.95
2022-09-11T00:44:08.004Z,84.96
2022-09-11T00:46:41.947Z,84.86
2022-09-11T00:49:22.240Z,84.54
2022-09-11T00:51:54.983Z,84.44
2022-09-11T00:54:28.786Z,84.37
2022-09-11T00:57:03.015Z,84.16
2022-09-11T00:59:34.433Z,84.62
2022-09-11T01:02:02.550Z,84.47
2022-09-11T01:04:29.388Z,84.75
2022-09-11T01:06:57.928Z,84.92
2022-09-11T01:09:29.338Z,84.93
2022-09-11T01:12:07.011Z,84.73
2022-09-11T01:14:55.332Z,84.46
2022-09-11T01:17:33.711Z,84.45
2022-09-11T01:20:19.104Z,84.25
2022-09-11T01:23:01.212Z,84.31
2022-09-11T01:25:39.931Z,84.65
2022-09-11T01:28:20.404Z,84.08
2022-09-11T01:30:54.512Z,84.32
2022-09-11T01:33:28.417Z,84.68
2022-09-11T01:36:06.359Z,85.04
2022-09-11T01:38:42.089Z,85.09
2022-09-11T01:41:15.589Z,85.16
2022-09-11T01:44:03.770Z,84.84
2022-09-11T01:46:36.948Z,84.72
2022-09-11T01:49:10.232Z,85.02
2022-09-11T01:51:40.381Z,84.81
2022-09-11T01:54:33.284Z,85.26
2022-09-11T01:57:06.531Z,85.10
2022-09-11T01:59:46.952Z,84.80
2022-09-11T02:02:20.505Z,84.95
2022-09-11T02:04:55.525Z,85.10
2022-09-11T02:07:29.123Z,84.70
2022-09-11T02:10:02.766Z,84.59
2022-09-11T02:12:46.061Z,84.65
2022-09-11T02:15:15.990Z,84.73
2022-09-11T02:18:02.447Z,85.06
2022-09-11T02:20:29.735Z,85.27
2022-09-11T02:22:57.196Z,85.36
2022-09-11T02:25:23.853Z,85.18
2022-09-11T02:27:50.521Z,84.96
2022-09-11T02:30:17.053Z,85.22
2022-09-11T02:32:45.035Z,84.77
2022-09-11T02:35:12.137Z,85.10
2022-09-11T02:37:56.856Z,85.30
2022-09-11T02:41:09.314Z,85.24
2022-09-11T02:43:58.835Z,84.70
2022-09-11T02:46:54.867Z,84.79
2022-09-11T02:49:44.792Z,84.94
2022-09-11T02:52:46.186Z,84.69
2022-09-11T02:55:24.676Z,85.07
2022-09-11T02:58:15.745Z,85.80
2022-09-11T03:00:42.519Z,85.80
2022-09-11T03:03:08.925Z,85.66
2022-09-11T03:05:37.236Z,86.01
2022-09-11T03:08:04.381Z,85.58
2022-09-11T03:10:30.903Z,85.73
2022-09-11T03:12:59.744Z,85.65
2022-09-11T03:15:27.356Z,85.34
2022-09-11T03:17:53.944Z,85.48
2022-09-11T03:20:22.070Z,85.56
2022-09-11T03:22:48.496Z,85.00
2022-09-11T03:25:20.492Z,84.75
2022-09-11T03:27:47.213Z,84.94
2022-09-11T03:30:13.702Z,85.21
2022-09-11T03:32:40.196Z,85.11
2022-09-11T03:35:06.928Z,85.10
2022-09-11T03:37:33.440Z,85.22
2022-09-11T03:40:01.495Z,85.37
2022-09-11T03:42:28.057Z,85.86
2022-09-11T03:44:54.677Z,85.47
2022-09-11T03:47:22.172Z,85.06
2022-09-11T03:49:48.775Z,85.07
2022-09-11T03:52:15.161Z,85.13
2022-09-11T03:54:42.123Z,85.13
2022-09-11T03:57:09.601Z,85.32
2022-09-11T03:59:35.952Z,85.25
2022-09-11T04:02:02.351Z,85.59
2022-09-11T04:04:28.782Z,85.40
2022-09-11T04:06:55.693Z,85.56
2022-09-11T04:09:22.296Z,85.58
2022-09-11T04:11:48.653Z,85.36
2022-09-11T04:14:15.902Z,85.21
2022-09-11T04:16:42.999Z,85.30
2022-09-11T04:19:10.490Z,85.31
2022-09-11T04:21:36.995Z,85.09
2022-09-11T04:24:03.523Z,85.36
2022-09-11T04:26:32.470Z,85.25
2022-09-11T04:28:59.998Z,85.34
2022-09-11T04:31:30.104Z,85.58
2022-09-11T04:33:58.143Z,85.16
2022-09-11T04:36:27.154Z,85.45
2022-09-11T04:38:56.165Z,85.33
2022-09-11T04:41:22.912Z,85.70
2022-09-11T04:43:49.855Z,85.54
2022-09-11T04:46:17.696Z,85.71
2022-09-11T04:48:45.411Z,85.57
2022-09-11T04:51:20.587Z,85.86
2022-09-11T04:53:47.226Z,86.38
2022-09-11T04:56:14.195Z,85.88
2022-09-11T04:58:41.628Z,86.18
2022-09-11T05:01:10.454Z,86.20
2022-09-11T05:03:37.066Z,86.27
2022-09-11T05:06:05.765Z,85.67
2022-09-11T05:08:33.508Z,85.92
2022-09-11T05:11:01.232Z,86.09
2022-09-11T05:13:28.119Z,85.50
2022-09-11T05:16:01.169Z,85.69
2022-09-11T05:18:27.850Z,85.35
2022-09-11T05:21:06.377Z,85.93
2022-09-11T05:23:34.157Z,86.01
2022-09-11T05:26:02.632Z,86.22
2022-09-11T05:28:31.048Z,86.44
2022-09-11T05:30:58.761Z,86.67
2022-09-11T05:33:26.875Z,86.90
2022-09-11T05:36:02.606Z,86.98
2022-09-11T05:38:33.608Z,86.71
2022-09-11T05:41:02.664Z,86.67
2022-09-11T05:43:29.177Z,86.84
2022-09-11T05:45:59.839Z,86.91
2022-09-11T05:48:31.300Z,86.53
2022-09-11T05:51:24.359Z,86.90
2022-09-11T05:53:55.575Z,86.57
2022-09-11T05:56:23.893Z,87.01
2022-09-11T05:58:53.764Z,86.94
2022-09-11T06:01:27.786Z,86.90
2022-09-11T06:03:55.173Z,87.02
2022-09-11T06:06:23.003Z,86.96
2022-09-11T06:08:51.739Z,86.68
2022-09-11T06:11:20.029Z,87.17
2022-09-11T06:13:47.316Z,87.14
2022-09-11T06:16:19.343Z,87.34
2022-09-11T06:18:48.975Z,87.03
2022-09-11T06:21:19.358Z,87.20
2022-09-11T06:23:51.856Z,87.35
2022-09-11T06:26:21.492Z,87.44
2022-09-11T06:28:48.665Z,87.27
2022-09-11T06:31:17.480Z,87.56
2022-09-11T06:33:44.265Z,87.12
2022-09-11T06:36:23.260Z,87.20
2022-09-11T06:38:55.240Z,86.96
2022-09-11T06:41:22.602Z,85.98
2022-09-11T06:43:49.330Z,85.54
2022-09-11T06:46:21.752Z,85.18
2022-09-11T06:48:49.765Z,84.60
2022-09-11T06:51:19.298Z,84.15
2022-09-11T06:53:47.467Z,83.88
2022-09-11T06:56:17.012Z,83.14
2022-09-11T06:58:45.143Z,82.65
2022-09-11T07:01:14.125Z,82.47
2022-09-11T07:03:49.207Z,81.50
2022-09-11T07:06:18.361Z,80.17
2022-09-11T07:08:50.868Z,79.88
2022-09-11T07:11:17.918Z,78.49
2022-09-11T07:13:44.830Z,77.39
2022-09-11T07:16:13.524Z,76.74
2022-09-11T07:18:42.303Z,76.54
2022-09-11T07:21:11.836Z,77.49
2022-09-11T07:23:39.411Z,78.21
2022-09-11T07:26:08.781Z,78.85
2022-09-11T07:28:37.571Z,78.87
2022-09-11T07:31:20.504Z,78.93
2022-09-11T07:33:52.347Z,77.69
2022-09-11T07:36:21.444Z,77.88
2022-09-11T07:38:49.652Z,78.68
2022-09-11T07:41:18.092Z,77.28
2022-09-11T07:43:50.605Z,75.30
2022-09-11T07:46:17.344Z,74.15
2022-09-11T07:48:43.880Z,73.26
2022-09-11T07:51:13.370Z,72.71
2022-09-11T07:53:48.411Z,70.71
2022-09-11T07:56:20.990Z,66.88
2022-09-11T07:58:47.960Z,60.53
2022-09-11T08:01:19.924Z,58.90
2022-09-11T08:03:47.084Z,58.12
2022-09-11T08:06:21.399Z,60.00
2022-09-11T08:08:52.424Z,59.98
2022-09-11T08:11:19.676Z,57.81
2022-09-11T08:13:51.732Z,55.70
2022-09-11T08:16:19.602Z,54.32
2022-09-11T08:18:46.891Z,53.79
2022-09-11T08:21:13.356Z,52.96
2022-09-11T08:23:42.343Z,51.64
2022-09-11T08:26:22.019Z,51.07
2022-09-11T08:28:50.545Z,48.07
2022-09-11T08:31:19.610Z,48.13
2022-09-11T08:33:46.112Z,48.29
2022-09-11T08:36:16.376Z,46.81
2022-09-11T08:38:44.549Z,46.85
2022-09-11T08:41:41.218Z,46.55
2022-09-11T08:44:21.099Z,44.44
2022-09-11T08:46:53.304Z,44.16
2022-09-11T08:49:19.840Z,44.51
2022-09-11T08:51:49.016Z,38.00
2022-09-11T08:54:31.953Z,42.42
2022-09-11T08:57:27.083Z,43.16
2022-09-11T09:00:07.027Z,44.41
2022-09-11T09:03:02.591Z,45.35
2022-09-11T09:05:50.915Z,43.97
2022-09-11T09:08:50.092Z,43.13
2022-09-11T09:11:42.974Z,45.24
2022-09-11T09:14:31.336Z,43.12
2022-09-11T09:17:12.495Z,42.79
2022-09-11T09:19:46.567Z,42.58
2022-09-11T09:22:38.162Z,41.81
2022-09-11T09:25:11.252Z,43.01
2022-09-11T09:27:45.819Z,43.04
2022-09-11T09:30:18.861Z,40.00
2022-09-11T09:33:03.552Z,40.58
2022-09-11T09:35:40.653Z,40.65
2022-09-11T09:38:14.156Z,39.59
2022-09-11T09:41:03.524Z,42.46
2022-09-11T09:43:42.636Z,44.98
2022-09-11T09:46:21.408Z,41.74
2022-09-11T09:48:47.794Z,41.88
2022-09-11T09:51:15.035Z,40.95
2022-09-11T09:53:58.225Z,43.86
2022-09-11T09:56:24.996Z,44.81
2022-09-11T09:59:00.946Z,44.88
2022-09-11T10:01:39.872Z,46.92
2022-09-11T10:04:13.348Z,47.05
2022-09-11T10:06:39.895Z,45.20
2022-09-11T10:09:06.589Z,47.79
2022-09-11T10:11:33.160Z,48.88
2022-09-11T10:13:59.665Z,47.30
2022-09-11T10:16:27.971Z,48.70
2022-09-11T10:18:55.976Z,49.08
2022-09-11T10:21:29.775Z,50.63
2022-09-11T10:24:09.067Z,50.07
2022-09-11T10:26:35.548Z,50.49
2022-09-11T10:29:11.967Z,50.05
2022-09-11T10:31:41.149Z,52.48
2022-09-11T10:34:16.190Z,53.88
2022-09-11T10:36:55.431Z,53.85
2022-09-11T10:39:25.257Z,53.55
2022-09-11T10:41:54.841Z,51.70
2022-09-11T10:44:22.524Z,52.02
2022-09-11T10:47:16.186Z,53.42
2022-09-11T10:49:42.828Z,51.61
2022-09-11T10:52:09.268Z,53.01
2022-09-11T10:54:54.329Z,52.05
2022-09-11T10:57:26.240Z,53.19
2022-09-11T11:00:17.420Z,52.25
2022-09-11T11:02:48.441Z,51.28
2022-09-11T11:05:30.184Z,49.83
2022-09-11T11:08:02.596Z,50.95
2022-09-11T11:10:37.924Z,51.50
2022-09-11T11:13:46.945Z,50.10
2022-09-11T11:16:30.408Z,47.40
2022-09-11T11:19:12.259Z,50.86
2022-09-11T11:22:08.392Z,48.15
2022-09-11T11:24:43.372Z,49.96
2022-09-11T11:28:00.400Z,48.66
2022-09-11T11:30:41.987Z,48.28
2022-09-11T11:33:19.924Z,46.26
2022-09-11T11:36:15.466Z,44.80
2022-09-11T11:38:49.156Z,43.43
2022-09-11T11:41:22.714Z,44.42
2022-09-11T11:43:52.562Z,44.19
2022-09-11T11:46:38.873Z,47.80
2022-09-11T11:49:13.929Z,48.48
2022-09-11T11:51:56.204Z,50.32
2022-09-11T11:54:32.921Z,53.12
2022-09-11T11:57:10.158Z,52.39
2022-09-11T11:59:54.182Z,51.19
2022-09-11T12:02:45.708Z,52.38
2022-09-11T12:05:24.297Z,52.62
2022-09-11T12:07:51.782Z,54.69
2022-09-11T12:10:22.411Z,53.04
2022-09-11T12:12:53.789Z,53.62
2022-09-11T12:15:22.926Z,54.69
2022-09-11T12:18:00.553Z,53.78
2022-09-11T12:20:35.184Z,54.31
2022-09-11T12:23:02.515Z,55.31
2022-09-11T12:25:28.955Z,54.91
2022-09-11T12:28:22.613Z,55.23
2022-09-11T12:31:11.415Z,55.98
2022-09-11T12:33:41.125Z,54.65
2022-09-11T12:36:11.388Z,53.65
2022-09-11T12:38:41.728Z,54.70
2022-09-11T12:41:22.595Z,56.21
2022-09-11T12:43:50.229Z,57.95
2022-09-11T12:46:22.527Z,58.56
2022-09-11T12:49:17.992Z,57.20
2022-09-11T12:51:50.006Z,55.30
2022-09-11T12:54:19.376Z,57.44
2022-09-11T12:56:48.604Z,54.67
2022-09-11T12:59:25.716Z,55.36
2022-09-11T13:01:53.623Z,57.57
2022-09-11T13:04:31.343Z,57.88
2022-09-11T13:07:00.464Z,58.35
2022-09-11T13:09:30.863Z,58.53
2022-09-11T13:12:26.058Z,58.71
2022-09-11T13:14:56.807Z,57.31
2022-09-11T13:17:26.540Z,57.80
2022-09-11T13:20:09.742Z,58.17
2022-09-11T13:22:36.508Z,60.04
2022-09-11T13:25:23.370Z,60.04
2022-09-11T13:27:52.671Z,59.39
2022-09-11T13:30:21.982Z,59.40
2022-09-11T13:32:54.420Z,58.02
2022-09-11T13:35:27.785Z,56.19
2022-09-11T13:38:02.764Z,55.31
2022-09-11T13:40:44.776Z,56.68
2022-09-11T13:43:17.388Z,57.29
2022-09-11T13:45:44.542Z,55.65
2022-09-11T13:48:23.916Z,55.70
2022-09-11T13:50:51.380Z,54.14
2022-09-11T13:53:22.679Z,53.35
2022-09-11T13:55:49.652Z,55.20
2022-09-11T13:58:35.456Z,54.62
2022-09-11T14:01:12.194Z,54.67
2022-09-11T14:03:44.182Z,51.72
2022-09-11T14:06:16.156Z,52.03
2022-09-11T14:08:49.015Z,49.94
2022-09-11T14:11:29.359Z,52.61
2022-09-11T14:14:05.700Z,54.00
2022-09-11T14:16:35.632Z,54.51
2022-09-11T14:19:11.384Z,55.28
2022-09-11T14:21:41.644Z,55.21
2022-09-11T14:24:28.656Z,55.32
2022-09-11T14:26:58.551Z,54.81
2022-09-11T14:29:33.677Z,55.20
2022-09-11T14:32:33.901Z,54.81
2022-09-11T14:35:09.674Z,53.53
2022-09-11T14:37:43.559Z,53.73
2022-09-11T14:40:19.604Z,51.92
2022-09-11T14:42:46.964Z,51.44
2022-09-11T14:45:22.319Z,52.06
2022-09-11T14:47:48.872Z,52.25
2022-09-11T14:50:15.362Z,53.17
2022-09-11T14:52:44.848Z,52.65
2022-09-11T14:55:19.361Z,51.96
2022-09-11T14:57:48.721Z,51.27
2022-09-11T15:00:19.279Z,51.02
2022-09-11T15:02:46.567Z,50.82
2022-09-11T15:05:16.670Z,49.17
2022-09-11T15:07:46.006Z,47.75
2022-09-11T15:10:14.097Z,47.30
2022-09-11T15:12:40.676Z,48.22
2022-09-11T15:15:07.805Z,50.07
2022-09-11T15:17:36.325Z,51.29
2022-09-11T15:20:08.309Z,50.49
2022-09-11T15:22:35.245Z,50.58
2022-09-11T15:25:04.860Z,51.16
2022-09-11T15:27:31.495Z,51.00
2022-09-11T15:29:57.848Z,51.76
2022-09-11T15:32:24.255Z,53.24
2022-09-11T15:34:51.756Z,53.30
2022-09-11T15:37:18.368Z,52.35
2022-09-11T15:39:45.068Z,51.67
2022-09-11T15:42:12.638Z,51.32
2022-09-11T15:44:38.991Z,52.08
2022-09-11T15:47:05.716Z,51.19
2022-09-11T15:49:32.319Z,51.94
2022-09-11T15:51:59.787Z,53.44
2022-09-11T15:54:27.266Z,52.32
2022-09-11T15:56:54.409Z,53.68
2022-09-11T15:59:20.771Z,53.53
2022-09-11T16:01:47.183Z,53.17
2022-09-11T16:04:17.392Z,54.01
2022-09-11T16:06:45.941Z,54.29
2022-09-11T16:09:24.216Z,54.54
2022-09-11T16:11:51.529Z,55.22
2022-09-11T16:14:19.735Z,53.90
2022-09-11T16:16:47.228Z,53.55
2022-09-11T16:19:15.312Z,53.71
2022-09-11T16:21:41.735Z,54.07
2022-09-11T16:24:08.141Z,54.12
2022-09-11T16:26:38.351Z,55.20
2022-09-11T16:29:08.884Z,55.07
2022-09-11T16:31:35.850Z,56.15
2022-09-11T16:34:04.695Z,55.71
2022-09-11T16:36:38.479Z,56.55
2022-09-11T16:39:13.770Z,56.65
2022-09-11T16:41:45.225Z,56.51
2022-09-11T16:44:14.209Z,56.38
2022-09-11T16:46:42.291Z,57.10
2022-09-11T16:49:10.236Z,56.95
2022-09-11T16:51:36.629Z,55.30
2022-09-11T16:54:04.376Z,56.52
2022-09-11T16:56:30.941Z,57.09
2022-09-11T16:58:57.722Z,58.22
2022-09-11T17:01:26.339Z,58.14
2022-09-11T17:03:55.780Z,60.16
2022-09-11T17:06:29.927Z,61.05
2022-09-11T17:08:59.810Z,61.08
2022-09-11T17:11:27.499Z,61.73
2022-09-11T17:13:54.202Z,62.39
2022-09-11T17:16:24.728Z,62.51
2022-09-11T17:18:54.023Z,62.73
2022-09-11T17:21:25.168Z,63.56
2022-09-11T17:23:53.815Z,64.13
2022-09-11T17:26:21.853Z,64.47
2022-09-11T17:28:50.100Z,65.21
2022-09-11T17:31:19.196Z,65.50
2022-09-11T17:33:46.918Z,65.54
2022-09-11T17:36:15.261Z,66.06
2022-09-11T17:38:51.895Z,66.24
2022-09-11T17:41:20.798Z,66.76
2022-09-11T17:43:48.224Z,67.13
2022-09-11T17:46:17.589Z,67.60
2022-09-11T17:48:45.453Z,67.94
2022-09-11T17:51:17.720Z,68.29
2022-09-11T17:53:47.274Z,68.66
2022-09-11T17:56:19.887Z,68.69
2022-09-11T17:58:50.844Z,69.12
2022-09-11T18:01:17.388Z,69.67
2022-09-11T18:03:49.292Z,69.85
2022-09-11T18:06:46.835Z,70.22
2022-09-11T18:09:19.508Z,70.67
2022-09-11T18:11:48.604Z,70.95
2022-09-11T18:14:16.649Z,71.28
2022-09-11T18:16:45.121Z,71.48
2022-09-11T18:19:12.656Z,71.80
2022-09-11T18:21:39.533Z,71.87
2022-09-11T18:24:07.209Z,72.00
2022-09-11T18:26:41.657Z,72.33
2022-09-11T18:29:16.686Z,72.32
2022-09-11T18:31:50.118Z,72.48
2022-09-11T18:34:19.760Z,72.75
2022-09-11T18:36:46.847Z,72.68
2022-09-11T18:39:22.366Z,73.11
2022-09-11T18:41:50.093Z,73.45
2022-09-11T18:44:20.092Z,73.51
2022-09-11T18:46:47.660Z,73.43
2022-09-11T18:49:15.394Z,73.47
2022-09-11T18:51:42.437Z,73.26
2022-09-11T18:54:20.847Z,73.70
2022-09-11T18:56:49.266Z,74.06
2022-09-11T18:59:16.184Z,74.11
2022-09-11T19:01:42.687Z,74.42
2022-09-11T19:04:11.884Z,74.57
2022-09-11T19:06:39.082Z,74.88
2022-09-11T19:09:07.572Z,74.88
2022-09-11T19:11:34.277Z,75.02
2022-09-11T19:14:06.296Z,74.79
2022-09-11T19:16:33.808Z,75.12
2022-09-11T19:19:02.785Z,74.78
2022-09-11T19:21:29.211Z,74.89
2022-09-11T19:24:01.281Z,75.25
2022-09-11T19:26:38.099Z,75.16
2022-09-11T19:29:06.279Z,75.41
2022-09-11T19:31:33.749Z,75.45
2022-09-11T19:34:02.041Z,75.36
2022-09-11T19:36:31.030Z,75.22
2022-09-11T19:39:00.724Z,75.38
2022-09-11T19:41:33.140Z,75.96
2022-09-11T19:44:04.450Z,76.25
2022-09-11T19:46:33.039Z,76.40
2022-09-11T19:49:02.850Z,76.40
2022-09-11T19:51:31.693Z,76.41
2022-09-11T19:54:00.550Z,76.46
2022-09-11T19:56:28.237Z,76.54
2022-09-11T19:58:55.136Z,76.50
2022-09-11T20:01:24.039Z,76.56
2022-09-11T20:03:55.261Z,76.90
2022-09-11T20:06:24.238Z,77.11
2022-09-11T20:08:59.159Z,76.90
2022-09-11T20:11:38.608Z,76.73
2022-09-11T20:14:05.588Z,77.02
2022-09-11T20:16:32.206Z,77.39
2022-09-11T20:19:06.691Z,77.51
2022-09-11T20:21:35.204Z,77.46
2022-09-11T20:24:02.436Z,77.16
2022-09-11T20:26:30.288Z,76.35
2022-09-11T20:29:00.757Z,76.77
2022-09-11T20:31:30.244Z,77.02
2022-09-11T20:33:57.092Z,76.98
2022-09-11T20:36:27.145Z,77.44
2022-09-11T20:38:58.155Z,77.25
2022-09-11T20:41:29.582Z,77.30
2022-09-11T20:43:57.616Z,77.38
2022-09-11T20:46:24.094Z,77.26
2022-09-11T20:48:53.094Z,77.14
2022-09-11T20:51:21.313Z,77.27
2022-09-11T20:53:48.348Z,77.11
2022-09-11T20:56:17.685Z,77.29
2022-09-11T20:58:44.840Z,77.29
2022-09-11T21:01:16.209Z,77.57
2022-09-11T21:03:48.192Z,77.52
2022-09-11T21:06:14.805Z,77.69
2022-09-11T21:08:42.344Z,77.68
2022-09-11T21:11:09.616Z,78.30
2022-09-11T21:13:41.429Z,78.29
2022-09-11T21:16:11.148Z,78.23
2022-09-11T21:18:38.483Z,78.02
2022-09-11T21:21:05.247Z,77.80
2022-09-11T21:23:31.838Z,78.17
2022-09-11T21:25:58.378Z,78.28
2022-09-11T21:28:24.772Z,78.09
2022-09-11T21:30:51.209Z,78.14
2022-09-11T21:33:18.415Z,78.19
2022-09-11T21:35:50.831Z,78.35
2022-09-11T21:38:17.201Z,78.44
2022-09-11T21:40:43.717Z,78.13
2022-09-11T21:43:10.088Z,78.39
2022-09-11T21:45:36.465Z,78.27
2022-09-11T21:48:03.216Z,78.49
2022-09-11T21:50:29.568Z,78.20
2022-09-11T21:52:55.900Z,78.09
2022-09-11T21:55:23.492Z,78.50
2022-09-11T21:57:49.844Z,78.30
2022-09-11T22:00:16.254Z,78.32
2022-09-11T22:02:42.784Z,78.50
2022-09-11T22:05:09.440Z,79.11
2022-09-11T22:07:36.241Z,79.12
2022-09-11T22:10:08.585Z,78.95
2022-09-11T22:12:35.191Z,79.03
2022-09-11T22:15:02.252Z,78.82
2022-09-11T22:17:28.763Z,78.92
2022-09-11T22:19:55.740Z,78.54
2022-09-11T22:22:22.672Z,78.50
2022-09-11T22:24:52.104Z,78.75
2022-09-11T22:27:27.984Z,78.80
2022-09-11T22:29:54.335Z,79.05
2022-09-11T22:32:20.688Z,78.96
2022-09-11T22:34:47.363Z,78.83
2022-09-11T22:37:13.711Z,79.20
2022-09-11T22:39:40.175Z,79.71
2022-09-11T22:42:06.960Z,79.30
2022-09-11T22:44:33.541Z,79.17
2022-09-11T22:47:00.170Z,79.26
2022-09-11T22:49:27.072Z,79.05
2022-09-11T22:51:53.414Z,79.03
2022-09-11T22:54:19.917Z,79.22
2022-09-11T22:56:46.276Z,79.68
2022-09-11T22:59:12.959Z,79.23
2022-09-11T23:01:39.761Z,79.40
2022-09-11T23:04:06.168Z,78.75
2022-09-11T23:06:51.187Z,79.06
2022-09-11T23:09:20.558Z,78.83
2022-09-11T23:11:47.646Z,79.11
2022-09-11T23:14:15.061Z,79.20
2022-09-11T23:16:42.390Z,79.04
2022-09-11T23:19:11.663Z,78.71
2022-09-11T23:21:38.158Z,78.45
2022-09-11T23:24:06.279Z,79.00
2022-09-11T23:26:33.695Z,79.27
2022-09-11T23:29:01.321Z,79.54
2022-09-11T23:31:33.825Z,79.51
2022-09-11T23:34:03.520Z,79.15
2022-09-11T23:36:30.789Z,79.46
2022-09-11T23:39:01.198Z,79.52
2022-09-11T23:41:28.871Z,79.40
2022-09-11T23:43:55.732Z,79.50
2022-09-11T23:46:22.337Z,79.42
2022-09-11T23:48:48.981Z,79.87
2022-09-11T23:51:16.224Z,79.44
2022-09-11T23:53:45.224Z,79.53
2022-09-11T23:56:14.290Z,79.32
2022-09-11T23:58:41.575Z,79.30
